sensor_id;sensor_type;location;lat;lon;timestamp;temperature;humidity
50162;DHT22;36061;48.116;11.612;2023-05-17T00:01:25;9.30;99.90
50162;DHT22;36061;48.116;11.612;2023-05-17T00:03:53;9.30;99.90
50162;DHT22;36061;48.116;11.612;2023-05-17T00:06:21;9.20;99.90
50162;DHT22;36061;48.116;11.612;2023-05-17T00:08:48;9.30;99.90
50162;DHT22;36061;48.116;11.612;2023-05-17T00:11:17;9.20;99.90
50162;DHT22;36061;48.116;11.612;2023-05-17T00:13:44;9.20;99.90
50162;DHT22;36061;48.116;11.612;2023-05-17T00:16:11;9.20;99.90
50162;DHT22;36061;48.116;11.612;2023-05-17T00:18:39;9.20;99.90
50162;DHT22;36061;48.116;11.612;2023-05-17T00:21:06;9.20;99.90
50162;DHT22;36061;48.116;11.612;2023-05-17T00:23:33;9.20;99.90
50162;DHT22;36061;48.116;11.612;2023-05-17T00:26:00;9.20;99.90
50162;DHT22;36061;48.116;11.612;2023-05-17T00:28:29;9.20;99.90
50162;DHT22;36061;48.116;11.612;2023-05-17T00:30:56;9.20;99.90
50162;DHT22;36061;48.116;11.612;2023-05-17T00:33:23;9.20;99.90
50162;DHT22;36061;48.116;11.612;2023-05-17T00:35:51;9.10;99.90
50162;DHT22;36061;48.116;11.612;2023-05-17T00:38:18;9.10;99.90
50162;DHT22;36061;48.116;11.612;2023-05-17T00:40:48;9.10;99.90
50162;DHT22;36061;48.116;11.612;2023-05-17T00:43:16;9.10;99.90
50162;DHT22;36061;48.116;11.612;2023-05-17T00:45:45;9.10;99.90
50162;DHT22;36061;48.116;11.612;2023-05-17T00:48:13;9.10;99.90
50162;DHT22;36061;48.116;11.612;2023-05-17T00:50:40;9.10;99.90
50162;DHT22;36061;48.116;11.612;2023-05-17T00:53:08;9.10;99.90
50162;DHT22;36061;48.116;11.612;2023-05-17T00:55:36;9.00;99.90
50162;DHT22;36061;48.116;11.612;2023-05-17T00:58:03;9.00;99.90
50162;DHT22;36061;48.116;11.612;2023-05-17T01:00:30;9.00;99.90
50162;DHT22;36061;48.116;11.612;2023-05-17T01:02:59;9.00;99.90
50162;DHT22;36061;48.116;11.612;2023-05-17T01:05:28;9.00;99.90
50162;DHT22;36061;48.116;11.612;2023-05-17T01:07:56;9.00;99.90
50162;DHT22;36061;48.116;11.612;2023-05-17T01:10:27;9.00;99.90
50162;DHT22;36061;48.116;11.612;2023-05-17T01:13:05;9.00;99.90
50162;DHT22;36061;48.116;11.612;2023-05-17T01:15:37;9.00;99.90
50162;DHT22;36061;48.116;11.612;2023-05-17T01:18:24;9.00;99.90
50162;DHT22;36061;48.116;11.612;2023-05-17T01:20:56;9.00;99.90
50162;DHT22;36061;48.116;11.612;2023-05-17T01:23:34;9.00;99.90
50162;DHT22;36061;48.116;11.612;2023-05-17T01:26:09;9.00;99.90
50162;DHT22;36061;48.116;11.612;2023-05-17T01:28:39;8.90;99.90
50162;DHT22;36061;48.116;11.612;2023-05-17T01:31:08;8.90;99.90
50162;DHT22;36061;48.116;11.612;2023-05-17T01:33:37;8.90;99.90
50162;DHT22;36061;48.116;11.612;2023-05-17T01:36:05;8.80;99.90
50162;DHT22;36061;48.116;11.612;2023-05-17T01:38:33;8.80;99.90
50162;DHT22;36061;48.116;11.612;2023-05-17T01:41:04;8.80;99.90
50162;DHT22;36061;48.116;11.612;2023-05-17T01:43:42;8.80;99.90
50162;DHT22;36061;48.116;11.612;2023-05-17T01:46:18;8.90;99.90
50162;DHT22;36061;48.116;11.612;2023-05-17T01:48:51;8.90;99.90
50162;DHT22;36061;48.116;11.612;2023-05-17T01:51:22;8.90;99.90
50162;DHT22;36061;48.116;11.612;2023-05-17T01:53:56;8.90;99.90
50162;DHT22;36061;48.116;11.612;2023-05-17T01:56:27;8.80;99.90
50162;DHT22;36061;48.116;11.612;2023-05-17T01:58:58;8.80;99.90
50162;DHT22;36061;48.116;11.612;2023-05-17T02:01:27;8.80;99.90
50162;DHT22;36061;48.116;11.612;2023-05-17T02:03:54;8.80;99.90
50162;DHT22;36061;48.116;11.612;2023-05-17T02:06:22;8.80;99.90
50162;DHT22;36061;48.116;11.612;2023-05-17T02:08:49;8.80;99.90
50162;DHT22;36061;48.116;11.612;2023-05-17T02:11:16;8.80;99.90
50162;DHT22;36061;48.116;11.612;2023-05-17T02:13:43;8.70;99.90
50162;DHT22;36061;48.116;11.612;2023-05-17T02:16:12;8.70;99.90
50162;DHT22;36061;48.116;11.612;2023-05-17T02:18:39;8.70;99.90
50162;DHT22;36061;48.116;11.612;2023-05-17T02:21:07;8.70;99.90
50162;DHT22;36061;48.116;11.612;2023-05-17T02:23:35;8.80;99.90
50162;DHT22;36061;48.116;11.612;2023-05-17T02:26:02;8.80;99.90
50162;DHT22;36061;48.116;11.612;2023-05-17T02:28:30;8.80;99.90
50162;DHT22;36061;48.116;11.612;2023-05-17T02:30:57;8.70;99.90
50162;DHT22;36061;48.116;11.612;2023-05-17T02:33:26;8.70;99.90
50162;DHT22;36061;48.116;11.612;2023-05-17T02:35:55;8.70;99.90
50162;DHT22;36061;48.116;11.612;2023-05-17T02:38:22;8.70;99.90
50162;DHT22;36061;48.116;11.612;2023-05-17T02:40:50;8.70;99.90
50162;DHT22;36061;48.116;11.612;2023-05-17T02:43:17;8.70;99.90
50162;DHT22;36061;48.116;11.612;2023-05-17T02:45:44;8.70;99.90
50162;DHT22;36061;48.116;11.612;2023-05-17T02:48:12;8.70;99.90
50162;DHT22;36061;48.116;11.612;2023-05-17T02:50:41;8.60;99.90
50162;DHT22;36061;48.116;11.612;2023-05-17T02:53:08;8.60;99.90
50162;DHT22;36061;48.116;11.612;2023-05-17T02:55:35;8.60;99.90
50162;DHT22;36061;48.116;11.612;2023-05-17T02:58:03;8.70;99.90
50162;DHT22;36061;48.116;11.612;2023-05-17T03:00:31;8.70;99.90
50162;DHT22;36061;48.116;11.612;2023-05-17T03:02:59;8.60;99.90
50162;DHT22;36061;48.116;11.612;2023-05-17T03:05:26;8.60;99.90
50162;DHT22;36061;48.116;11.612;2023-05-17T03:07:55;8.50;99.90
50162;DHT22;36061;48.116;11.612;2023-05-17T03:10:22;8.50;99.90
50162;DHT22;36061;48.116;11.612;2023-05-17T03:12:49;8.50;99.90
50162;DHT22;36061;48.116;11.612;2023-05-17T03:15:19;8.60;99.90
50162;DHT22;36061;48.116;11.612;2023-05-17T03:17:47;8.50;99.90
50162;DHT22;36061;48.116;11.612;2023-05-17T03:20:16;8.50;99.90
50162;DHT22;36061;48.116;11.612;2023-05-17T03:22:45;8.50;99.90
50162;DHT22;36061;48.116;11.612;2023-05-17T03:25:14;8.50;99.90
50162;DHT22;36061;48.116;11.612;2023-05-17T03:27:41;8.50;99.90
50162;DHT22;36061;48.116;11.612;2023-05-17T03:30:09;8.50;99.90
50162;DHT22;36061;48.116;11.612;2023-05-17T03:32:38;8.40;99.90
50162;DHT22;36061;48.116;11.612;2023-05-17T03:35:06;8.50;99.90
50162;DHT22;36061;48.116;11.612;2023-05-17T03:37:35;8.40;99.90
50162;DHT22;36061;48.116;11.612;2023-05-17T03:40:02;8.40;99.90
50162;DHT22;36061;48.116;11.612;2023-05-17T03:42:31;8.40;99.90
50162;DHT22;36061;48.116;11.612;2023-05-17T03:44:59;8.30;99.90
50162;DHT22;36061;48.116;11.612;2023-05-17T03:47:27;8.30;99.90
50162;DHT22;36061;48.116;11.612;2023-05-17T03:49:54;8.30;99.90
50162;DHT22;36061;48.116;11.612;2023-05-17T03:52:22;8.30;99.90
50162;DHT22;36061;48.116;11.612;2023-05-17T03:54:49;8.30;99.90
50162;DHT22;36061;48.116;11.612;2023-05-17T03:57:16;8.20;99.90
50162;DHT22;36061;48.116;11.612;2023-05-17T03:59:45;8.30;99.90
50162;DHT22;36061;48.116;11.612;2023-05-17T04:02:14;8.30;99.90
50162;DHT22;36061;48.116;11.612;2023-05-17T04:04:48;8.30;99.90
50162;DHT22;36061;48.116;11.612;2023-05-17T04:07:16;8.30;99.90
50162;DHT22;36061;48.116;11.612;2023-05-17T04:09:43;8.30;99.90
50162;DHT22;36061;48.116;11.612;2023-05-17T04:12:10;8.30;99.90
50162;DHT22;36061;48.116;11.612;2023-05-17T04:14:38;8.30;99.90
50162;DHT22;36061;48.116;11.612;2023-05-17T04:17:07;8.30;99.90
50162;DHT22;36061;48.116;11.612;2023-05-17T04:19:34;8.40;99.90
50162;DHT22;36061;48.116;11.612;2023-05-17T04:22:02;8.30;99.90
50162;DHT22;36061;48.116;11.612;2023-05-17T04:24:29;8.30;99.90
50162;DHT22;36061;48.116;11.612;2023-05-17T04:26:56;8.30;99.90
50162;DHT22;36061;48.116;11.612;2023-05-17T04:29:24;8.30;99.90
50162;DHT22;36061;48.116;11.612;2023-05-17T04:31:51;8.30;99.90
50162;DHT22;36061;48.116;11.612;2023-05-17T04:34:20;8.30;99.90
50162;DHT22;36061;48.116;11.612;2023-05-17T04:36:48;8.30;99.90
50162;DHT22;36061;48.116;11.612;2023-05-17T04:39:16;8.30;99.90
50162;DHT22;36061;48.116;11.612;2023-05-17T04:41:43;8.30;99.90
50162;DHT22;36061;48.116;11.612;2023-05-17T04:44:13;8.30;99.90
50162;DHT22;36061;48.116;11.612;2023-05-17T04:46:42;8.30;99.90
50162;DHT22;36061;48.116;11.612;2023-05-17T04:49:12;8.30;99.90
50162;DHT22;36061;48.116;11.612;2023-05-17T04:51:42;8.40;99.90
50162;DHT22;36061;48.116;11.612;2023-05-17T04:54:10;8.40;99.90
50162;DHT22;36061;48.116;11.612;2023-05-17T04:56:37;8.50;99.90
50162;DHT22;36061;48.116;11.612;2023-05-17T04:59:09;8.50;99.90
50162;DHT22;36061;48.116;11.612;2023-05-17T05:01:36;8.50;99.90
50162;DHT22;36061;48.116;11.612;2023-05-17T05:04:04;8.50;99.90
50162;DHT22;36061;48.116;11.612;2023-05-17T05:06:35;8.50;99.90
50162;DHT22;36061;48.116;11.612;2023-05-17T05:09:04;8.60;99.90
50162;DHT22;36061;48.116;11.612;2023-05-17T05:11:34;8.60;99.90
50162;DHT22;36061;48.116;11.612;2023-05-17T05:14:03;8.50;99.90
50162;DHT22;36061;48.116;11.612;2023-05-17T05:16:30;8.50;99.90
50162;DHT22;36061;48.116;11.612;2023-05-17T05:18:57;8.50;99.90
50162;DHT22;36061;48.116;11.612;2023-05-17T05:21:24;8.50;99.90
50162;DHT22;36061;48.116;11.612;2023-05-17T05:23:52;8.40;99.90
50162;DHT22;36061;48.116;11.612;2023-05-17T05:26:20;8.50;99.90
50162;DHT22;36061;48.116;11.612;2023-05-17T05:28:48;8.50;99.90
50162;DHT22;36061;48.116;11.612;2023-05-17T05:31:16;8.50;99.90
50162;DHT22;36061;48.116;11.612;2023-05-17T05:33:49;8.50;99.90
50162;DHT22;36061;48.116;11.612;2023-05-17T05:36:16;8.60;99.90
50162;DHT22;36061;48.116;11.612;2023-05-17T05:38:44;8.70;99.90
50162;DHT22;36061;48.116;11.612;2023-05-17T05:41:11;9.00;99.90
50162;DHT22;36061;48.116;11.612;2023-05-17T05:43:41;9.20;99.90
50162;DHT22;36061;48.116;11.612;2023-05-17T05:46:08;9.40;99.90
50162;DHT22;36061;48.116;11.612;2023-05-17T05:48:35;9.40;99.90
50162;DHT22;36061;48.116;11.612;2023-05-17T05:51:06;9.40;99.90
50162;DHT22;36061;48.116;11.612;2023-05-17T05:53:35;9.40;99.90
50162;DHT22;36061;48.116;11.612;2023-05-17T05:56:02;9.60;99.90
50162;DHT22;36061;48.116;11.612;2023-05-17T05:58:30;9.70;99.90
50162;DHT22;36061;48.116;11.612;2023-05-17T06:01:00;9.80;99.90
50162;DHT22;36061;48.116;11.612;2023-05-17T06:03:28;9.90;99.90
50162;DHT22;36061;48.116;11.612;2023-05-17T06:05:55;9.90;99.90
50162;DHT22;36061;48.116;11.612;2023-05-17T06:08:22;10.00;99.90
50162;DHT22;36061;48.116;11.612;2023-05-17T06:10:49;9.90;99.90
50162;DHT22;36061;48.116;11.612;2023-05-17T06:13:17;9.80;99.90
50162;DHT22;36061;48.116;11.612;2023-05-17T06:15:44;9.70;99.90
50162;DHT22;36061;48.116;11.612;2023-05-17T06:18:12;9.70;99.90
50162;DHT22;36061;48.116;11.612;2023-05-17T06:20:39;9.70;99.90
50162;DHT22;36061;48.116;11.612;2023-05-17T06:23:07;9.70;99.90
50162;DHT22;36061;48.116;11.612;2023-05-17T06:25:34;9.80;99.90
50162;DHT22;36061;48.116;11.612;2023-05-17T06:28:02;9.80;99.90
50162;DHT22;36061;48.116;11.612;2023-05-17T06:30:29;9.90;99.90
50162;DHT22;36061;48.116;11.612;2023-05-17T06:32:56;9.90;99.90
50162;DHT22;36061;48.116;11.612;2023-05-17T06:35:25;9.90;99.90
50162;DHT22;36061;48.116;11.612;2023-05-17T06:37:52;9.90;99.90
50162;DHT22;36061;48.116;11.612;2023-05-17T06:40:20;9.90;99.90
50162;DHT22;36061;48.116;11.612;2023-05-17T06:42:47;10.00;99.90
50162;DHT22;36061;48.116;11.612;2023-05-17T06:45:14;10.00;99.90
50162;DHT22;36061;48.116;11.612;2023-05-17T06:47:41;10.00;99.90
50162;DHT22;36061;48.116;11.612;2023-05-17T06:50:09;10.00;99.90
50162;DHT22;36061;48.116;11.612;2023-05-17T06:52:37;10.00;99.90
50162;DHT22;36061;48.116;11.612;2023-05-17T06:55:05;10.10;99.90
50162;DHT22;36061;48.116;11.612;2023-05-17T06:57:34;10.20;99.90
50162;DHT22;36061;48.116;11.612;2023-05-17T07:00:01;10.30;99.90
50162;DHT22;36061;48.116;11.612;2023-05-17T07:02:31;10.50;99.90
50162;DHT22;36061;48.116;11.612;2023-05-17T07:04:58;10.70;99.90
50162;DHT22;36061;48.116;11.612;2023-05-17T07:07:25;10.70;99.90
50162;DHT22;36061;48.116;11.612;2023-05-17T07:09:54;10.70;99.90
50162;DHT22;36061;48.116;11.612;2023-05-17T07:12:21;10.70;99.90
50162;DHT22;36061;48.116;11.612;2023-05-17T07:14:48;10.70;99.90
50162;DHT22;36061;48.116;11.612;2023-05-17T07:17:16;10.70;99.90
50162;DHT22;36061;48.116;11.612;2023-05-17T07:19:43;10.70;99.90
50162;DHT22;36061;48.116;11.612;2023-05-17T07:22:10;10.70;99.90
50162;DHT22;36061;48.116;11.612;2023-05-17T07:24:38;10.70;99.90
50162;DHT22;36061;48.116;11.612;2023-05-17T07:27:06;10.80;99.90
50162;DHT22;36061;48.116;11.612;2023-05-17T07:29:33;10.80;99.90
50162;DHT22;36061;48.116;11.612;2023-05-17T07:32:01;10.80;99.90
50162;DHT22;36061;48.116;11.612;2023-05-17T07:34:29;10.70;99.90
50162;DHT22;36061;48.116;11.612;2023-05-17T07:36:58;10.60;99.90
50162;DHT22;36061;48.116;11.612;2023-05-17T07:39:26;10.60;99.90
50162;DHT22;36061;48.116;11.612;2023-05-17T07:41:53;10.70;99.90
50162;DHT22;36061;48.116;11.612;2023-05-17T07:44:21;10.70;99.90
50162;DHT22;36061;48.116;11.612;2023-05-17T07:46:48;10.70;99.90
50162;DHT22;36061;48.116;11.612;2023-05-17T07:49:16;10.80;99.90
50162;DHT22;36061;48.116;11.612;2023-05-17T07:51:43;10.80;99.90
50162;DHT22;36061;48.116;11.612;2023-05-17T07:54:12;10.80;99.90
50162;DHT22;36061;48.116;11.612;2023-05-17T07:56:48;10.80;99.90
50162;DHT22;36061;48.116;11.612;2023-05-17T07:59:15;10.80;99.90
50162;DHT22;36061;48.116;11.612;2023-05-17T08:01:43;10.80;99.90
50162;DHT22;36061;48.116;11.612;2023-05-17T08:04:11;10.90;99.90
50162;DHT22;36061;48.116;11.612;2023-05-17T08:06:39;11.10;99.90
50162;DHT22;36061;48.116;11.612;2023-05-17T08:09:06;11.10;99.90
50162;DHT22;36061;48.116;11.612;2023-05-17T08:11:33;11.20;99.90
50162;DHT22;36061;48.116;11.612;2023-05-17T08:14:01;11.20;99.90
50162;DHT22;36061;48.116;11.612;2023-05-17T08:16:28;11.30;99.90
50162;DHT22;36061;48.116;11.612;2023-05-17T08:18:56;11.30;99.90
50162;DHT22;36061;48.116;11.612;2023-05-17T08:21:24;11.30;99.90
50162;DHT22;36061;48.116;11.612;2023-05-17T08:23:51;11.50;99.90
50162;DHT22;36061;48.116;11.612;2023-05-17T08:26:18;11.60;99.90
50162;DHT22;36061;48.116;11.612;2023-05-17T08:28:45;11.60;99.90
50162;DHT22;36061;48.116;11.612;2023-05-17T08:31:12;11.60;99.90
50162;DHT22;36061;48.116;11.612;2023-05-17T08:33:39;11.60;99.90
50162;DHT22;36061;48.116;11.612;2023-05-17T08:36:08;11.60;99.90
50162;DHT22;36061;48.116;11.612;2023-05-17T08:38:36;11.70;99.90
50162;DHT22;36061;48.116;11.612;2023-05-17T08:41:03;11.90;99.90
50162;DHT22;36061;48.116;11.612;2023-05-17T08:43:30;11.90;99.90
50162;DHT22;36061;48.116;11.612;2023-05-17T08:45:57;11.90;99.90
50162;DHT22;36061;48.116;11.612;2023-05-17T08:48:25;11.80;99.90
50162;DHT22;36061;48.116;11.612;2023-05-17T08:50:56;11.70;99.90
50162;DHT22;36061;48.116;11.612;2023-05-17T08:53:26;11.70;99.90
50162;DHT22;36061;48.116;11.612;2023-05-17T08:55:57;11.60;99.90
50162;DHT22;36061;48.116;11.612;2023-05-17T08:58:27;11.50;99.90
50162;DHT22;36061;48.116;11.612;2023-05-17T09:00:57;11.60;99.90
50162;DHT22;36061;48.116;11.612;2023-05-17T09:03:25;11.60;99.90
50162;DHT22;36061;48.116;11.612;2023-05-17T09:05:55;11.70;99.90
50162;DHT22;36061;48.116;11.612;2023-05-17T09:08:29;11.90;99.90
50162;DHT22;36061;48.116;11.612;2023-05-17T09:10:57;11.90;99.90
50162;DHT22;36061;48.116;11.612;2023-05-17T09:13:25;12.00;99.90
50162;DHT22;36061;48.116;11.612;2023-05-17T09:15:52;12.10;99.90
50162;DHT22;36061;48.116;11.612;2023-05-17T09:18:28;12.10;99.90
50162;DHT22;36061;48.116;11.612;2023-05-17T09:21:01;12.20;99.90
50162;DHT22;36061;48.116;11.612;2023-05-17T09:23:32;12.20;99.90
50162;DHT22;36061;48.116;11.612;2023-05-17T09:26:06;12.10;99.90
50162;DHT22;36061;48.116;11.612;2023-05-17T09:28:38;12.20;99.90
50162;DHT22;36061;48.116;11.612;2023-05-17T09:31:06;12.30;99.90
50162;DHT22;36061;48.116;11.612;2023-05-17T09:33:34;12.30;99.90
50162;DHT22;36061;48.116;11.612;2023-05-17T09:36:01;12.30;99.90
50162;DHT22;36061;48.116;11.612;2023-05-17T09:38:28;12.40;99.90
50162;DHT22;36061;48.116;11.612;2023-05-17T09:40:57;12.40;99.90
50162;DHT22;36061;48.116;11.612;2023-05-17T09:43:28;12.50;99.90
50162;DHT22;36061;48.116;11.612;2023-05-17T09:45:57;12.50;99.90
50162;DHT22;36061;48.116;11.612;2023-05-17T09:48:25;12.60;99.90
50162;DHT22;36061;48.116;11.612;2023-05-17T09:50:53;12.60;99.90
50162;DHT22;36061;48.116;11.612;2023-05-17T09:53:27;12.60;99.90
50162;DHT22;36061;48.116;11.612;2023-05-17T09:55:57;12.50;99.90
50162;DHT22;36061;48.116;11.612;2023-05-17T09:58:25;12.50;99.90
50162;DHT22;36061;48.116;11.612;2023-05-17T10:00:58;12.50;99.90
50162;DHT22;36061;48.116;11.612;2023-05-17T10:03:26;12.50;99.90
50162;DHT22;36061;48.116;11.612;2023-05-17T10:05:56;12.50;99.90
50162;DHT22;36061;48.116;11.612;2023-05-17T10:08:25;12.60;99.90
50162;DHT22;36061;48.116;11.612;2023-05-17T10:10:54;12.60;99.90
50162;DHT22;36061;48.116;11.612;2023-05-17T10:13:28;12.70;99.90
50162;DHT22;36061;48.116;11.612;2023-05-17T10:15:56;12.70;99.90
50162;DHT22;36061;48.116;11.612;2023-05-17T10:18:24;12.70;99.90
50162;DHT22;36061;48.116;11.612;2023-05-17T10:20:51;12.80;99.90
50162;DHT22;36061;48.116;11.612;2023-05-17T10:23:19;12.90;99.90
50162;DHT22;36061;48.116;11.612;2023-05-17T10:25:47;12.90;99.90
50162;DHT22;36061;48.116;11.612;2023-05-17T10:28:16;13.00;99.90
50162;DHT22;36061;48.116;11.612;2023-05-17T10:30:46;13.10;99.90
50162;DHT22;36061;48.116;11.612;2023-05-17T10:33:14;13.10;99.90
50162;DHT22;36061;48.116;11.612;2023-05-17T10:35:43;13.00;99.90
50162;DHT22;36061;48.116;11.612;2023-05-17T10:38:11;13.00;99.90
50162;DHT22;36061;48.116;11.612;2023-05-17T10:40:40;12.90;99.90
50162;DHT22;36061;48.116;11.612;2023-05-17T10:43:09;12.90;99.90
50162;DHT22;36061;48.116;11.612;2023-05-17T10:45:36;12.90;99.90
50162;DHT22;36061;48.116;11.612;2023-05-17T10:48:06;12.80;99.90
50162;DHT22;36061;48.116;11.612;2023-05-17T10:50:37;12.80;99.90
50162;DHT22;36061;48.116;11.612;2023-05-17T10:53:08;12.80;99.90
50162;DHT22;36061;48.116;11.612;2023-05-17T10:55:38;13.00;99.90
50162;DHT22;36061;48.116;11.612;2023-05-17T10:58:14;13.00;99.90
50162;DHT22;36061;48.116;11.612;2023-05-17T11:00:43;13.00;99.90
50162;DHT22;36061;48.116;11.612;2023-05-17T11:03:15;13.00;99.90
50162;DHT22;36061;48.116;11.612;2023-05-17T11:05:44;13.10;99.90
50162;DHT22;36061;48.116;11.612;2023-05-17T11:08:12;13.10;99.90
50162;DHT22;36061;48.116;11.612;2023-05-17T11:13:49;13.00;99.90
50162;DHT22;36061;48.116;11.612;2023-05-17T11:16:21;13.00;99.90
50162;DHT22;36061;48.116;11.612;2023-05-17T11:18:52;13.00;99.90
50162;DHT22;36061;48.116;11.612;2023-05-17T11:21:21;13.10;99.90
50162;DHT22;36061;48.116;11.612;2023-05-17T11:23:53;13.10;99.90
50162;DHT22;36061;48.116;11.612;2023-05-17T11:26:23;13.10;99.90
50162;DHT22;36061;48.116;11.612;2023-05-17T11:29:00;13.10;99.90
50162;DHT22;36061;48.116;11.612;2023-05-17T11:31:31;13.00;99.90
50162;DHT22;36061;48.116;11.612;2023-05-17T11:34:01;13.00;99.90
50162;DHT22;36061;48.116;11.612;2023-05-17T11:36:29;12.90;99.90
50162;DHT22;36061;48.116;11.612;2023-05-17T11:39:10;12.90;99.90
50162;DHT22;36061;48.116;11.612;2023-05-17T11:41:39;12.80;99.90
50162;DHT22;36061;48.116;11.612;2023-05-17T11:44:07;12.70;99.90
50162;DHT22;36061;48.116;11.612;2023-05-17T11:46:34;12.70;99.90
50162;DHT22;36061;48.116;11.612;2023-05-17T11:49:07;12.90;99.90
50162;DHT22;36061;48.116;11.612;2023-05-17T11:51:35;13.10;99.90
50162;DHT22;36061;48.116;11.612;2023-05-17T11:54:03;13.20;99.90
50162;DHT22;36061;48.116;11.612;2023-05-17T11:56:33;13.30;99.90
50162;DHT22;36061;48.116;11.612;2023-05-17T11:59:01;13.30;99.90
50162;DHT22;36061;48.116;11.612;2023-05-17T12:01:41;13.20;99.90
50162;DHT22;36061;48.116;11.612;2023-05-17T12:04:10;13.10;99.90
50162;DHT22;36061;48.116;11.612;2023-05-17T12:06:37;13.00;99.90
50162;DHT22;36061;48.116;11.612;2023-05-17T12:09:04;13.00;99.90
50162;DHT22;36061;48.116;11.612;2023-05-17T12:11:36;13.10;99.90
50162;DHT22;36061;48.116;11.612;2023-05-17T12:14:04;13.30;99.90
50162;DHT22;36061;48.116;11.612;2023-05-17T12:16:33;13.50;99.90
50162;DHT22;36061;48.116;11.612;2023-05-17T12:19:02;13.70;99.90
50162;DHT22;36061;48.116;11.612;2023-05-17T12:21:30;13.80;99.90
50162;DHT22;36061;48.116;11.612;2023-05-17T12:23:58;13.80;99.90
50162;DHT22;36061;48.116;11.612;2023-05-17T12:26:25;13.80;99.90
50162;DHT22;36061;48.116;11.612;2023-05-17T12:28:53;13.70;99.90
50162;DHT22;36061;48.116;11.612;2023-05-17T12:31:24;13.70;99.90
50162;DHT22;36061;48.116;11.612;2023-05-17T12:33:53;13.60;99.90
50162;DHT22;36061;48.116;11.612;2023-05-17T12:36:20;13.70;99.90
50162;DHT22;36061;48.116;11.612;2023-05-17T12:38:49;13.80;99.90
50162;DHT22;36061;48.116;11.612;2023-05-17T12:41:19;13.90;99.90
50162;DHT22;36061;48.116;11.612;2023-05-17T12:43:48;14.00;99.90
50162;DHT22;36061;48.116;11.612;2023-05-17T12:46:16;14.10;99.60
50162;DHT22;36061;48.116;11.612;2023-05-17T12:48:45;14.10;99.60
50162;DHT22;36061;48.116;11.612;2023-05-17T12:51:13;14.00;99.90
50162;DHT22;36061;48.116;11.612;2023-05-17T12:53:41;13.90;99.80
50162;DHT22;36061;48.116;11.612;2023-05-17T12:56:15;13.80;99.60
50162;DHT22;36061;48.116;11.612;2023-05-17T12:58:42;13.80;99.90
50162;DHT22;36061;48.116;11.612;2023-05-17T13:01:10;13.70;99.90
50162;DHT22;36061;48.116;11.612;2023-05-17T13:03:40;13.60;99.90
50162;DHT22;36061;48.116;11.612;2023-05-17T13:06:08;13.50;99.90
50162;DHT22;36061;48.116;11.612;2023-05-17T13:08:35;13.60;99.90
50162;DHT22;36061;48.116;11.612;2023-05-17T13:11:07;13.70;99.50
50162;DHT22;36061;48.116;11.612;2023-05-17T13:13:36;13.80;99.10
50162;DHT22;36061;48.116;11.612;2023-05-17T13:16:03;13.80;99.10
50162;DHT22;36061;48.116;11.612;2023-05-17T13:18:45;13.80;99.10
50162;DHT22;36061;48.116;11.612;2023-05-17T13:21:12;13.80;98.60
50162;DHT22;36061;48.116;11.612;2023-05-17T13:23:42;13.70;98.90
50162;DHT22;36061;48.116;11.612;2023-05-17T13:26:09;13.60;99.50
50162;DHT22;36061;48.116;11.612;2023-05-17T13:28:39;13.60;99.60
50162;DHT22;36061;48.116;11.612;2023-05-17T13:31:07;13.50;99.50
50162;DHT22;36061;48.116;11.612;2023-05-17T13:33:34;13.50;99.70
50162;DHT22;36061;48.116;11.612;2023-05-17T13:36:01;13.50;99.90
50162;DHT22;36061;48.116;11.612;2023-05-17T13:38:29;13.60;99.90
50162;DHT22;36061;48.116;11.612;2023-05-17T13:40:56;13.60;99.90
50162;DHT22;36061;48.116;11.612;2023-05-17T13:43:23;13.70;99.90
50162;DHT22;36061;48.116;11.612;2023-05-17T13:45:52;13.70;99.90
50162;DHT22;36061;48.116;11.612;2023-05-17T13:48:23;13.70;99.50
50162;DHT22;36061;48.116;11.612;2023-05-17T13:50:50;13.60;99.60
50162;DHT22;36061;48.116;11.612;2023-05-17T13:53:18;13.60;99.90
50162;DHT22;36061;48.116;11.612;2023-05-17T13:55:45;13.60;99.90
50162;DHT22;36061;48.116;11.612;2023-05-17T13:58:13;13.70;99.90
50162;DHT22;36061;48.116;11.612;2023-05-17T14:00:41;13.70;99.90
50162;DHT22;36061;48.116;11.612;2023-05-17T14:03:11;13.70;99.60
50162;DHT22;36061;48.116;11.612;2023-05-17T14:05:39;13.70;99.10
50162;DHT22;36061;48.116;11.612;2023-05-17T14:08:06;13.70;99.80
50162;DHT22;36061;48.116;11.612;2023-05-17T14:10:34;13.70;99.90
50162;DHT22;36061;48.116;11.612;2023-05-17T14:13:02;13.70;99.90
50162;DHT22;36061;48.116;11.612;2023-05-17T14:15:29;13.70;99.90
50162;DHT22;36061;48.116;11.612;2023-05-17T14:18:02;13.70;99.90
50162;DHT22;36061;48.116;11.612;2023-05-17T14:20:31;13.70;99.70
50162;DHT22;36061;48.116;11.612;2023-05-17T14:22:59;13.70;99.90
50162;DHT22;36061;48.116;11.612;2023-05-17T14:25:26;13.70;99.70
50162;DHT22;36061;48.116;11.612;2023-05-17T14:27:54;13.60;99.90
50162;DHT22;36061;48.116;11.612;2023-05-17T14:30:21;13.60;99.90
50162;DHT22;36061;48.116;11.612;2023-05-17T14:32:48;13.60;99.90
50162;DHT22;36061;48.116;11.612;2023-05-17T14:35:15;13.60;99.90
50162;DHT22;36061;48.116;11.612;2023-05-17T14:37:44;13.70;99.90
50162;DHT22;36061;48.116;11.612;2023-05-17T14:40:11;13.70;99.90
50162;DHT22;36061;48.116;11.612;2023-05-17T14:42:39;13.80;99.90
50162;DHT22;36061;48.116;11.612;2023-05-17T14:45:07;13.80;99.90
50162;DHT22;36061;48.116;11.612;2023-05-17T14:47:35;13.80;99.90
50162;DHT22;36061;48.116;11.612;2023-05-17T14:50:02;13.90;99.90
50162;DHT22;36061;48.116;11.612;2023-05-17T14:52:29;13.80;99.90
50162;DHT22;36061;48.116;11.612;2023-05-17T14:54:58;13.80;99.90
50162;DHT22;36061;48.116;11.612;2023-05-17T14:57:25;13.80;99.90
50162;DHT22;36061;48.116;11.612;2023-05-17T14:59:52;13.90;99.90
50162;DHT22;36061;48.116;11.612;2023-05-17T15:02:21;13.90;99.80
50162;DHT22;36061;48.116;11.612;2023-05-17T15:04:48;14.00;99.90
50162;DHT22;36061;48.116;11.612;2023-05-17T15:07:16;14.00;99.90
50162;DHT22;36061;48.116;11.612;2023-05-17T15:09:43;14.20;99.50
50162;DHT22;36061;48.116;11.612;2023-05-17T15:12:12;14.20;99.30
50162;DHT22;36061;48.116;11.612;2023-05-17T15:14:40;14.10;99.90
50162;DHT22;36061;48.116;11.612;2023-05-17T15:17:08;14.10;99.90
50162;DHT22;36061;48.116;11.612;2023-05-17T15:19:35;14.00;99.90
50162;DHT22;36061;48.116;11.612;2023-05-17T15:22:03;13.90;99.90
50162;DHT22;36061;48.116;11.612;2023-05-17T15:24:30;13.90;99.90
50162;DHT22;36061;48.116;11.612;2023-05-17T15:26:57;13.90;99.90
50162;DHT22;36061;48.116;11.612;2023-05-17T15:29:25;13.90;99.90
50162;DHT22;36061;48.116;11.612;2023-05-17T15:31:54;13.70;99.90
50162;DHT22;36061;48.116;11.612;2023-05-17T15:34:21;13.60;99.90